Time;durP1;ratioP1;P1;durP2;ratioP2;P2;SDS_P1;SDS_P2;PMS_P1;PMS_P2;Temp;Humidity;BMP_temperature;BMP_pressure;BME280_temperature;BME280_humidity;BME280_pressure;Samples;Min_cycle;Max_cycle;Signal;HPM_P1;HPM_P2
2023/07/25 00:01:14;;;;;;;1.43;1.33;;;;;;;;;;5010698;28;20201;-27
2023/07/25 00:03:41;;;;;;;1.27;1.17;;;;;;;;;;5012973;28;20225;-27
2023/07/25 00:06:08;;;;;;;1.50;1.37;;;;;;;;;;5007364;28;20201;-26
2023/07/25 00:08:38;;;;;;;1.53;1.43;;;;;;;;;;5003170;28;20648;-24
2023/07/25 00:11:05;;;;;;;1.53;1.43;;;;;;;;;;5009184;28;20211;-29
2023/07/25 00:13:32;;;;;;;2.00;1.50;;;;;;;;;;5012568;28;20256;-28
2023/07/25 00:16:01;;;;;;;1.20;1.10;;;;;;;;;;4995723;28;20212;-26
2023/07/25 00:18:28;;;;;;;1.83;1.53;;;;;;;;;;4994740;28;20321;-28
2023/07/25 00:20:55;;;;;;;1.97;1.50;;;;;;;;;;4994780;28;20229;-26
2023/07/25 00:23:22;;;;;;;1.40;1.30;;;;;;;;;;5001162;28;20208;-26
2023/07/25 00:25:50;;;;;;;2.00;1.30;;;;;;;;;;5012817;28;20296;-27
2023/07/25 00:28:17;;;;;;;1.33;1.30;;;;;;;;;;5013529;28;20300;-27
2023/07/25 00:30:44;;;;;;;1.20;1.07;;;;;;;;;;5013825;28;20272;-25
2023/07/25 00:33:12;;;;;;;1.63;1.53;;;;;;;;;;5014478;28;20224;-28
2023/07/25 00:35:39;;;;;;;2.80;1.23;;;;;;;;;;5004827;28;20215;-27
2023/07/25 00:38:06;;;;;;;2.10;1.57;;;;;;;;;;5014691;28;20202;-26
2023/07/25 00:40:39;;;;;;;1.80;1.50;;;;;;;;;;5014253;28;20207;-29
2023/07/25 00:43:06;;;;;;;2.27;1.23;;;;;;;;;;5257867;22;20229;-29
2023/07/25 00:45:33;;;;;;;1.60;1.23;;;;;;;;;;5035072;28;20641;-28
2023/07/25 00:48:00;;;;;;;1.53;1.43;;;;;;;;;;5035069;28;20563;-26
2023/07/25 00:50:29;;;;;;;1.47;1.37;;;;;;;;;;5015843;28;20235;-28
2023/07/25 00:52:58;;;;;;;2.33;1.50;;;;;;;;;;5028243;28;20440;-27
2023/07/25 00:55:25;;;;;;;1.50;1.17;;;;;;;;;;5029568;28;20207;-29
2023/07/25 00:57:52;;;;;;;1.63;1.53;;;;;;;;;;5019405;28;20227;-30
2023/07/25 01:00:19;;;;;;;1.50;1.40;;;;;;;;;;5018072;28;20540;-27
2023/07/25 01:02:46;;;;;;;2.27;1.37;;;;;;;;;;5020509;28;20209;-27
2023/07/25 01:05:13;;;;;;;2.57;1.23;;;;;;;;;;5028895;28;20199;-27
2023/07/25 01:07:42;;;;;;;2.27;1.63;;;;;;;;;;5011344;28;20598;-28
2023/07/25 01:10:10;;;;;;;1.50;1.40;;;;;;;;;;5011764;28;20614;-30
2023/07/25 01:12:37;;;;;;;2.33;1.80;;;;;;;;;;5016087;28;20214;-25
2023/07/25 01:15:04;;;;;;;1.40;1.30;;;;;;;;;;5023384;28;20219;-30
2023/07/25 01:17:31;;;;;;;1.67;1.30;;;;;;;;;;5012523;28;20202;-26
2023/07/25 01:19:59;;;;;;;1.40;1.30;;;;;;;;;;5012016;28;20232;-26
2023/07/25 01:22:27;;;;;;;1.47;1.30;;;;;;;;;;5024775;28;20212;-26
2023/07/25 01:24:56;;;;;;;1.50;1.40;;;;;;;;;;5018166;28;20212;-27
2023/07/25 01:27:23;;;;;;;1.73;1.30;;;;;;;;;;5016678;28;20214;-29
2023/07/25 01:29:51;;;;;;;2.37;1.50;;;;;;;;;;5028644;28;20223;-26
2023/07/25 01:32:18;;;;;;;1.73;1.63;;;;;;;;;;5012823;28;20211;-29
2023/07/25 01:34:45;;;;;;;2.27;1.30;;;;;;;;;;5012667;28;20235;-30
2023/07/25 01:37:12;;;;;;;2.77;1.27;;;;;;;;;;5019907;28;20207;-30
2023/07/25 01:39:39;;;;;;;1.20;1.17;;;;;;;;;;5014359;28;20295;-29
2023/07/25 01:42:08;;;;;;;1.50;1.40;;;;;;;;;;5017220;28;20236;-27
2023/07/25 01:44:35;;;;;;;1.70;1.33;;;;;;;;;;5031105;28;20416;-29
2023/07/25 01:47:02;;;;;;;1.77;1.63;;;;;;;;;;5023109;28;20223;-27
2023/07/25 01:49:29;;;;;;;3.87;1.50;;;;;;;;;;5020751;28;20236;-29
2023/07/25 01:51:56;;;;;;;2.53;1.67;;;;;;;;;;5020413;28;20300;-29
2023/07/25 01:54:24;;;;;;;1.63;1.53;;;;;;;;;;5024592;28;20235;-29
2023/07/25 01:56:51;;;;;;;1.90;1.33;;;;;;;;;;5020249;28;20215;-28
2023/07/25 01:59:20;;;;;;;2.17;1.50;;;;;;;;;;5034031;28;20226;-27
2023/07/25 02:01:47;;;;;;;2.60;1.17;;;;;;;;;;5035355;28;20203;-28
2023/07/25 02:04:14;;;;;;;1.60;1.50;;;;;;;;;;5034658;28;20286;-28
2023/07/25 02:06:41;;;;;;;1.50;1.40;;;;;;;;;;5027294;28;20209;-29
2023/07/25 02:09:08;;;;;;;1.80;1.50;;;;;;;;;;5023415;28;20228;-28
2023/07/25 02:11:36;;;;;;;2.80;1.33;;;;;;;;;;5010795;28;20211;-29
2023/07/25 02:14:03;;;;;;;2.20;1.40;;;;;;;;;;5019436;28;20226;-27
2023/07/25 02:16:33;;;;;;;1.97;1.80;;;;;;;;;;5010989;28;20604;-28
2023/07/25 02:19:00;;;;;;;3.43;1.90;;;;;;;;;;5011574;28;20224;-28
2023/07/25 02:21:27;;;;;;;1.67;1.53;;;;;;;;;;5018763;28;20208;-27
2023/07/25 02:23:55;;;;;;;2.90;1.60;;;;;;;;;;5028065;28;20199;-27
2023/07/25 02:26:22;;;;;;;1.60;1.50;;;;;;;;;;5019978;28;20203;-28
2023/07/25 02:28:49;;;;;;;2.00;1.70;;;;;;;;;;5019329;28;20239;-27
2023/07/25 02:31:16;;;;;;;4.47;1.43;;;;;;;;;;5018546;28;20573;-28
2023/07/25 02:33:44;;;;;;;1.40;1.30;;;;;;;;;;5012534;28;20228;-26
2023/07/25 02:36:11;;;;;;;2.37;1.73;;;;;;;;;;5008183;28;20688;-28
2023/07/25 02:38:39;;;;;;;3.97;1.70;;;;;;;;;;5029695;28;20318;-27
2023/07/25 02:41:06;;;;;;;2.43;1.43;;;;;;;;;;5026999;28;20203;-28
2023/07/25 02:43:33;;;;;;;1.60;1.43;;;;;;;;;;5026638;28;20206;-28
2023/07/25 02:46:00;;;;;;;1.97;1.47;;;;;;;;;;5030066;28;20213;-32
2023/07/25 02:48:27;;;;;;;10.10;1.80;;;;;;;;;;5030537;28;20219;-29
2023/07/25 02:50:55;;;;;;;1.60;1.50;;;;;;;;;;5028341;28;20203;-29
2023/07/25 02:53:22;;;;;;;2.37;1.70;;;;;;;;;;5021654;28;20515;-29
2023/07/25 02:55:50;;;;;;;2.30;1.40;;;;;;;;;;5011588;28;20208;-28
2023/07/25 02:58:17;;;;;;;1.70;1.60;;;;;;;;;;5022605;28;20204;-28
2023/07/25 03:00:44;;;;;;;2.30;1.40;;;;;;;;;;5013994;28;20205;-29
2023/07/25 03:03:11;;;;;;;4.53;1.40;;;;;;;;;;5010999;28;20212;-29
2023/07/25 03:05:38;;;;;;;1.53;1.43;;;;;;;;;;5022835;28;20203;-29
2023/07/25 03:08:07;;;;;;;2.00;1.40;;;;;;;;;;5018297;28;20637;-30
2023/07/25 03:10:34;;;;;;;2.87;1.30;;;;;;;;;;5011172;28;20213;-28
2023/07/25 03:13:01;;;;;;;3.67;1.70;;;;;;;;;;5031969;28;20219;-25
2023/07/25 03:15:28;;;;;;;1.60;1.50;;;;;;;;;;5025114;28;20568;-29
2023/07/25 03:17:55;;;;;;;2.40;1.73;;;;;;;;;;5033197;28;20218;-29
2023/07/25 03:20:22;;;;;;;1.30;1.20;;;;;;;;;;5025237;28;20579;-26
2023/07/25 03:22:49;;;;;;;1.40;1.30;;;;;;;;;;5014336;28;20379;-27
2023/07/25 03:25:18;;;;;;;2.70;1.80;;;;;;;;;;5022466;28;20195;-27
2023/07/25 03:27:45;;;;;;;2.50;1.60;;;;;;;;;;5014354;28;20208;-29
2023/07/25 03:30:12;;;;;;;1.83;1.60;;;;;;;;;;5026253;28;20237;-26
2023/07/25 03:32:39;;;;;;;2.87;1.60;;;;;;;;;;5010903;28;20210;-29
2023/07/25 03:35:07;;;;;;;2.60;1.50;;;;;;;;;;5009508;28;20232;-29
2023/07/25 03:37:34;;;;;;;1.43;1.33;;;;;;;;;;5014798;28;20207;-27
2023/07/25 03:40:01;;;;;;;1.87;1.53;;;;;;;;;;5031016;28;20222;-25
2023/07/25 03:42:30;;;;;;;1.50;1.40;;;;;;;;;;5022426;28;20207;-29
2023/07/25 03:44:57;;;;;;;1.90;1.60;;;;;;;;;;5021017;28;20658;-30
2023/07/25 03:47:24;;;;;;;2.03;1.60;;;;;;;;;;5029547;28;20258;-26
2023/07/25 03:49:51;;;;;;;1.77;1.67;;;;;;;;;;5030184;28;20223;-28
2023/07/25 03:52:19;;;;;;;2.53;1.60;;;;;;;;;;5019083;28;20544;-31
2023/07/25 03:54:46;;;;;;;1.50;1.40;;;;;;;;;;5026636;28;20595;-29
2023/07/25 03:57:13;;;;;;;1.80;1.60;;;;;;;;;;5029044;28;20256;-30
2023/07/25 03:59:41;;;;;;;2.27;2.07;;;;;;;;;;5026230;28;20225;-30
2023/07/25 04:02:09;;;;;;;3.80;1.70;;;;;;;;;;5032445;28;20209;-29
2023/07/25 04:04:36;;;;;;;2.47;1.80;;;;;;;;;;5024578;28;20208;-28
2023/07/25 04:07:03;;;;;;;1.60;1.50;;;;;;;;;;5023703;28;20219;-28
2023/07/25 04:09:30;;;;;;;1.97;1.60;;;;;;;;;;5014807;28;20223;-26
2023/07/25 04:11:57;;;;;;;1.83;1.73;;;;;;;;;;5013143;28;20222;-28
2023/07/25 04:14:25;;;;;;;1.73;1.60;;;;;;;;;;5025611;28;20235;-28
2023/07/25 04:16:53;;;;;;;2.17;1.60;;;;;;;;;;5035956;28;20680;-26
2023/07/25 04:19:21;;;;;;;2.40;1.80;;;;;;;;;;5029995;28;20218;-30
2023/07/25 04:21:48;;;;;;;2.50;1.70;;;;;;;;;;5021473;28;20207;-28
2023/07/25 04:24:15;;;;;;;2.60;1.83;;;;;;;;;;5031805;28;20214;-29
2023/07/25 04:26:44;;;;;;;4.33;1.40;;;;;;;;;;5033380;28;20205;-28
2023/07/25 04:29:11;;;;;;;2.13;1.73;;;;;;;;;;5043845;28;20230;-25
2023/07/25 04:31:38;;;;;;;1.90;1.47;;;;;;;;;;5051855;28;20206;-29
2023/07/25 04:34:07;;;;;;;1.97;1.77;;;;;;;;;;5045318;28;20222;-27
2023/07/25 04:36:34;;;;;;;5.57;1.93;;;;;;;;;;5047021;28;20232;-30
2023/07/25 04:39:01;;;;;;;1.60;1.43;;;;;;;;;;5014683;28;20227;-29
2023/07/25 04:41:28;;;;;;;4.30;1.60;;;;;;;;;;5012089;28;20204;-29
2023/07/25 04:43:55;;;;;;;2.70;2.00;;;;;;;;;;5031296;28;20663;-28
2023/07/25 04:46:22;;;;;;;1.97;1.63;;;;;;;;;;5051197;28;20206;-26
2023/07/25 04:48:48;;;;;;;2.17;1.50;;;;;;;;;;5051778;28;20312;-27
2023/07/25 04:51:17;;;;;;;2.00;1.80;;;;;;;;;;5029512;28;20222;-25
2023/07/25 04:53:44;;;;;;;2.03;1.90;;;;;;;;;;5042302;28;20213;-28
2023/07/25 04:56:11;;;;;;;3.17;2.07;;;;;;;;;;5027771;28;20319;-27
2023/07/25 04:58:40;;;;;;;1.83;1.73;;;;;;;;;;5030708;28;20233;-26
2023/07/25 05:01:09;;;;;;;2.27;1.70;;;;;;;;;;5034470;28;20237;-27
2023/07/25 05:03:36;;;;;;;3.43;1.87;;;;;;;;;;5033600;28;20210;-27
2023/07/25 05:06:03;;;;;;;2.33;1.67;;;;;;;;;;5026626;28;20207;-29
2023/07/25 05:08:32;;;;;;;2.00;1.80;;;;;;;;;;5019709;28;20228;-28
2023/07/25 05:11:00;;;;;;;2.67;1.70;;;;;;;;;;5015091;28;20213;-29
2023/07/25 05:13:27;;;;;;;3.20;1.80;;;;;;;;;;5031556;28;20203;-30
2023/07/25 05:15:54;;;;;;;2.43;1.97;;;;;;;;;;5036086;28;20230;-31
2023/07/25 05:18:21;;;;;;;1.80;1.70;;;;;;;;;;5036228;28;20210;-28
2023/07/25 05:20:48;;;;;;;2.10;1.90;;;;;;;;;;5032910;28;20808;-30
2023/07/25 05:23:15;;;;;;;2.60;2.10;;;;;;;;;;5016360;28;20221;-31
2023/07/25 05:25:44;;;;;;;1.97;1.60;;;;;;;;;;5021758;28;20293;-31
2023/07/25 05:28:11;;;;;;;2.30;1.97;;;;;;;;;;5026406;28;20217;-31
2023/07/25 05:30:38;;;;;;;4.07;1.80;;;;;;;;;;5034301;28;20203;-28
2023/07/25 05:33:07;;;;;;;2.23;1.87;;;;;;;;;;5034578;28;20200;-28
2023/07/25 05:35:34;;;;;;;3.63;2.40;;;;;;;;;;5017913;28;20234;-31
2023/07/25 05:38:02;;;;;;;1.70;1.60;;;;;;;;;;5022243;28;20199;-28
2023/07/25 05:40:29;;;;;;;1.57;1.47;;;;;;;;;;5033171;28;20533;-28
2023/07/25 05:42:58;;;;;;;2.90;2.33;;;;;;;;;;5015281;28;20210;-30
2023/07/25 05:45:26;;;;;;;1.97;1.57;;;;;;;;;;5027557;28;20764;-28
2023/07/25 05:47:53;;;;;;;2.47;2.27;;;;;;;;;;5029655;28;20209;-29
2023/07/25 05:50:20;;;;;;;3.13;2.07;;;;;;;;;;5024949;28;20223;-28
2023/07/25 05:52:47;;;;;;;3.03;2.00;;;;;;;;;;5033047;28;20203;-30
2023/07/25 05:55:14;;;;;;;3.33;2.30;;;;;;;;;;5020463;28;20215;-29
2023/07/25 05:57:41;;;;;;;3.77;1.80;;;;;;;;;;5021721;28;20218;-30
2023/07/25 06:00:10;;;;;;;2.97;2.30;;;;;;;;;;5023926;28;20251;-40
2023/07/25 06:02:37;;;;;;;2.37;1.97;;;;;;;;;;5032745;28;20655;-28
2023/07/25 06:05:05;;;;;;;2.43;2.10;;;;;;;;;;5025087;28;20207;-30
2023/07/25 06:07:32;;;;;;;3.77;2.43;;;;;;;;;;5013220;28;20211;-26
2023/07/25 06:09:59;;;;;;;2.57;2.10;;;;;;;;;;5014792;28;20246;-30
2023/07/25 06:12:26;;;;;;;3.63;2.60;;;;;;;;;;5027994;28;20203;-30
2023/07/25 06:14:53;;;;;;;3.63;2.50;;;;;;;;;;5023310;28;20225;-28
2023/07/25 06:17:22;;;;;;;2.93;2.63;;;;;;;;;;5013533;28;20199;-31
2023/07/25 06:19:49;;;;;;;4.27;2.47;;;;;;;;;;5014272;28;20223;-31
2023/07/25 06:22:16;;;;;;;2.10;1.63;;;;;;;;;;5017784;28;20676;-28
2023/07/25 06:24:43;;;;;;;3.07;2.23;;;;;;;;;;5025041;28;20203;-29
2023/07/25 06:27:11;;;;;;;3.63;2.47;;;;;;;;;;5027463;28;20199;-30
2023/07/25 06:29:38;;;;;;;3.83;2.97;;;;;;;;;;5029895;28;20232;-29
2023/07/25 06:32:05;;;;;;;3.47;2.90;;;;;;;;;;5035084;28;20554;-28
2023/07/25 06:34:33;;;;;;;2.60;2.27;;;;;;;;;;5035112;28;20212;-28
2023/07/25 06:37:01;;;;;;;5.33;2.90;;;;;;;;;;5025590;28;20248;-31
2023/07/25 06:39:28;;;;;;;5.03;2.63;;;;;;;;;;5033581;28;20235;-28
2023/07/25 06:41:55;;;;;;;4.23;2.37;;;;;;;;;;5020480;28;20299;-30
2023/07/25 06:44:23;;;;;;;3.57;2.67;;;;;;;;;;5022736;28;20218;-30
2023/07/25 06:46:50;;;;;;;3.57;2.57;;;;;;;;;;5031820;28;20563;-30
2023/07/25 06:49:17;;;;;;;3.03;2.33;;;;;;;;;;5026199;28;20224;-28
2023/07/25 06:51:46;;;;;;;2.97;2.70;;;;;;;;;;5020567;28;20947;-31
2023/07/25 06:54:14;;;;;;;2.60;2.40;;;;;;;;;;5022078;28;20217;-27
2023/07/25 06:56:41;;;;;;;2.53;2.23;;;;;;;;;;5019187;28;20228;-30
2023/07/25 06:59:10;;;;;;;3.20;2.47;;;;;;;;;;5025370;28;20224;-31
2023/07/25 07:02:10;;;;;;;5.50;2.60;;;;;;;;;;5017008;28;20867;-27
2023/07/25 07:04:37;;;;;;;3.27;2.93;;;;;;;;;;5016269;28;20303;-32
2023/07/25 07:07:06;;;;;;;4.73;3.33;;;;;;;;;;5013226;28;20283;-31
2023/07/25 07:09:33;;;;;;;2.93;2.63;;;;;;;;;;5016105;28;20242;-29
2023/07/25 07:12:01;;;;;;;3.70;2.80;;;;;;;;;;5013890;28;20676;-29
2023/07/25 07:14:28;;;;;;;3.87;2.87;;;;;;;;;;5016101;28;20201;-31
2023/07/25 07:16:55;;;;;;;3.43;2.50;;;;;;;;;;5029093;28;20219;-28
2023/07/25 07:19:23;;;;;;;4.27;2.97;;;;;;;;;;5017173;28;20227;-31
2023/07/25 07:21:50;;;;;;;3.20;2.47;;;;;;;;;;5017105;28;20299;-32
2023/07/25 07:24:19;;;;;;;4.67;2.83;;;;;;;;;;5020979;28;20510;-28
2023/07/25 07:26:46;;;;;;;6.37;3.10;;;;;;;;;;5012944;28;20219;-31
2023/07/25 07:29:14;;;;;;;4.27;3.20;;;;;;;;;;5015265;28;20234;-31
2023/07/25 07:31:41;;;;;;;4.20;2.93;;;;;;;;;;5014798;28;20208;-31
2023/07/25 07:34:13;;;;;;;3.43;2.70;;;;;;;;;;5015840;28;20658;-30
2023/07/25 07:36:40;;;;;;;3.93;2.87;;;;;;;;;;5012560;28;20318;-27
2023/07/25 07:39:07;;;;;;;5.80;3.30;;;;;;;;;;5010918;28;20215;-29
2023/07/25 07:41:36;;;;;;;5.03;3.33;;;;;;;;;;5018863;28;20298;-27
2023/07/25 07:44:03;;;;;;;3.17;2.87;;;;;;;;;;5009475;28;20212;-28
2023/07/25 07:46:30;;;;;;;3.40;3.10;;;;;;;;;;5012500;28;20206;-29
2023/07/25 07:49:03;;;;;;;6.87;3.30;;;;;;;;;;5017934;28;20237;-29
2023/07/25 07:51:30;;;;;;;3.43;2.70;;;;;;;;;;5021775;28;20203;-30
2023/07/25 07:53:59;;;;;;;4.00;2.87;;;;;;;;;;5011114;28;20218;-26
2023/07/25 07:56:26;;;;;;;4.67;2.87;;;;;;;;;;5012819;28;20238;-30
2023/07/25 07:58:54;;;;;;;5.97;3.67;;;;;;;;;;5012963;28;20429;-29
2023/07/25 08:01:23;;;;;;;4.30;2.83;;;;;;;;;;5018621;28;20593;-29
2023/07/25 08:03:51;;;;;;;4.33;2.33;;;;;;;;;;5011517;28;20226;-30
2023/07/25 08:06:19;;;;;;;3.53;2.87;;;;;;;;;;5018796;28;20227;-30
2023/07/25 08:08:47;;;;;;;3.53;3.13;;;;;;;;;;5013994;28;20220;-31
2023/07/25 08:11:14;;;;;;;3.07;2.77;;;;;;;;;;5009506;28;20664;-31
2023/07/25 08:13:41;;;;;;;5.47;3.30;;;;;;;;;;5013241;28;20200;-29
2023/07/25 08:16:10;;;;;;;3.87;2.30;;;;;;;;;;5015469;28;20223;-27
2023/07/25 08:18:37;;;;;;;5.07;3.00;;;;;;;;;;5019109;28;20684;-27
2023/07/25 08:21:04;;;;;;;3.80;2.80;;;;;;;;;;5017736;28;20207;-30
2023/07/25 08:23:31;;;;;;;4.97;3.20;;;;;;;;;;5016668;28;20212;-27
2023/07/25 08:25:58;;;;;;;6.50;2.63;;;;;;;;;;5015941;28;20205;-27
2023/07/25 08:28:26;;;;;;;2.97;2.50;;;;;;;;;;5029322;28;20240;-29
2023/07/25 08:30:59;;;;;;;5.23;2.70;;;;;;;;;;5020456;28;20317;-28
2023/07/25 08:33:28;;;;;;;6.17;2.73;;;;;;;;;;5035886;28;20187;-29
2023/07/25 08:35:55;;;;;;;4.27;3.07;;;;;;;;;;5022551;28;20228;-28
2023/07/25 08:38:22;;;;;;;3.70;3.00;;;;;;;;;;5023452;28;20264;-28
2023/07/25 08:40:56;;;;;;;5.97;3.10;;;;;;;;;;5011811;28;20212;-28
2023/07/25 08:43:23;;;;;;;2.40;2.20;;;;;;;;;;5026365;28;20568;-27
2023/07/25 08:45:51;;;;;;;3.53;2.93;;;;;;;;;;5033784;28;20698;-29
2023/07/25 08:48:19;;;;;;;4.07;2.30;;;;;;;;;;5032197;28;20218;-29
2023/07/25 08:50:47;;;;;;;2.27;2.07;;;;;;;;;;5018161;28;20237;-28
2023/07/25 08:53:15;;;;;;;2.13;1.97;;;;;;;;;;5023179;28;20575;-31
2023/07/25 08:55:42;;;;;;;3.40;2.07;;;;;;;;;;5022374;28;20580;-28
2023/07/25 08:58:10;;;;;;;2.20;2.00;;;;;;;;;;5032106;28;20201;-32
2023/07/25 09:00:37;;;;;;;4.95;1.92;;;;;;;;;;5022997;28;20209;-31
2023/07/25 09:03:04;;;;;;;3.50;1.85;;;;;;;;;;5021469;28;20566;-31
2023/07/25 09:05:32;;;;;;;1.70;1.60;;;;;;;;;;5022941;28;20207;-29
2023/07/25 09:08:00;;;;;;;1.77;1.67;;;;;;;;;;5019351;28;20199;-29
2023/07/25 09:10:29;;;;;;;3.72;2.00;;;;;;;;;;5033130;28;20219;-28
2023/07/25 09:12:56;;;;;;;2.65;1.80;;;;;;;;;;5022921;28;20206;-28
2023/07/25 09:15:23;;;;;;;3.15;2.28;;;;;;;;;;5023019;28;20210;-31
2023/07/25 09:17:53;;;;;;;2.40;2.25;;;;;;;;;;5014753;28;20207;-30
2023/07/25 09:20:21;;;;;;;2.25;1.85;;;;;;;;;;5023227;28;20225;-28
2023/07/25 09:22:48;;;;;;;2.60;2.10;;;;;;;;;;5020376;28;20214;-28
2023/07/25 09:25:17;;;;;;;4.95;2.20;;;;;;;;;;5024574;28;20214;-29
2023/07/25 09:27:46;;;;;;;2.15;1.92;;;;;;;;;;5016863;28;20221;-26
2023/07/25 09:30:15;;;;;;;2.10;1.90;;;;;;;;;;5019310;28;20211;-27
2023/07/25 09:32:46;;;;;;;2.03;1.60;;;;;;;;;;5014653;28;20214;-32
2023/07/25 09:35:14;;;;;;;1.70;1.60;;;;;;;;;;5019844;28;20269;-27
2023/07/25 09:37:42;;;;;;;3.07;1.60;;;;;;;;;;5024596;28;20227;-31
2023/07/25 09:40:10;;;;;;;3.17;1.63;;;;;;;;;;5027641;28;20256;-30
2023/07/25 09:42:42;;;;;;;3.47;1.40;;;;;;;;;;5022970;28;20203;-29
2023/07/25 09:45:09;;;;;;;1.50;1.20;;;;;;;;;;5015196;28;20222;-29
2023/07/25 09:47:42;;;;;;;1.47;1.30;;;;;;;;;;5021925;28;20195;-28
2023/07/25 09:50:10;;;;;;;1.40;1.20;;;;;;;;;;5020040;28;20219;-31
2023/07/25 09:52:41;;;;;;;2.23;1.20;;;;;;;;;;5016009;28;20206;-30
2023/07/25 09:55:08;;;;;;;1.67;1.37;;;;;;;;;;5015619;28;20203;-29
2023/07/25 09:57:35;;;;;;;1.88;1.40;;;;;;;;;;5016560;28;20226;-29
2023/07/25 10:00:06;;;;;;;3.00;1.40;;;;;;;;;;5017075;28;20218;-30
2023/07/25 10:02:33;;;;;;;1.33;1.23;;;;;;;;;;5022491;28;20218;-32
2023/07/25 10:05:02;;;;;;;1.97;1.60;;;;;;;;;;5027882;28;20203;-31
2023/07/25 10:07:32;;;;;;;1.43;1.30;;;;;;;;;;5021419;28;20235;-29
2023/07/25 10:10:00;;;;;;;1.20;1.10;;;;;;;;;;5021485;28;20264;-32
2023/07/25 10:12:32;;;;;;;1.50;1.30;;;;;;;;;;5017388;28;20211;-28
2023/07/25 10:14:59;;;;;;;1.20;1.10;;;;;;;;;;5021373;28;20293;-30
2023/07/25 10:17:28;;;;;;;0.77;0.77;;;;;;;;;;5027192;28;20747;-28
2023/07/25 10:19:55;;;;;;;1.58;1.00;;;;;;;;;;5027465;28;20225;-31
2023/07/25 10:22:35;;;;;;;1.00;1.00;;;;;;;;;;5018534;28;20275;-30
2023/07/25 10:25:02;;;;;;;0.97;0.97;;;;;;;;;;5018340;28;20290;-28
2023/07/25 10:27:30;;;;;;;1.00;0.90;;;;;;;;;;5011875;28;20261;-31
2023/07/25 10:30:01;;;;;;;1.87;1.10;;;;;;;;;;5023513;28;20750;-26
2023/07/25 10:35:35;;;;;;;0.97;0.90;;;;;;;;;;5084555;28;20612;-40
2023/07/25 10:38:07;;;;;;;1.43;1.00;;;;;;;;;;5084098;28;20295;-38
2023/07/25 10:40:51;;;;;;;1.00;0.93;;;;;;;;;;5068908;28;20189;-37
2023/07/25 10:43:18;;;;;;;1.40;1.30;;;;;;;;;;5059055;28;20201;-36
2023/07/25 10:45:49;;;;;;;1.73;1.20;;;;;;;;;;5067323;28;20205;-42
2023/07/25 10:48:30;;;;;;;1.63;0.97;;;;;;;;;;5068036;28;20204;-41
2023/07/25 10:50:57;;;;;;;1.57;0.90;;;;;;;;;;5058503;28;20209;-38
2023/07/25 10:53:26;;;;;;;0.90;0.88;;;;;;;;;;5065669;28;20221;-34
2023/07/25 10:56:11;;;;;;;1.05;0.98;;;;;;;;;;5066078;28;20208;-35
2023/07/25 10:58:39;;;;;;;1.37;1.17;;;;;;;;;;5063849;28;20706;-36
2023/07/25 11:01:06;;;;;;;0.80;0.80;;;;;;;;;;5069267;28;20208;-38
2023/07/25 11:03:36;;;;;;;1.40;1.07;;;;;;;;;;5069127;28;20206;-34
2023/07/25 11:06:21;;;;;;;1.10;1.00;;;;;;;;;;5064917;28;20213;-39
2023/07/25 11:08:50;;;;;;;0.90;0.83;;;;;;;;;;5066891;28;20235;-39
2023/07/25 11:11:18;;;;;;;2.85;1.30;;;;;;;;;;5063068;28;20208;-38
2023/07/25 11:13:45;;;;;;;0.67;0.67;;;;;;;;;;5067808;28;20312;-40
2023/07/25 11:16:14;;;;;;;2.20;1.00;;;;;;;;;;5068599;28;20208;-35
2023/07/25 11:18:49;;;;;;;1.93;1.20;;;;;;;;;;5068959;28;20260;-33
2023/07/25 11:21:16;;;;;;;5.30;1.10;;;;;;;;;;5062196;28;20205;-37
2023/07/25 11:23:44;;;;;;;1.83;1.30;;;;;;;;;;5065833;28;20205;-35
2023/07/25 11:26:13;;;;;;;2.05;0.90;;;;;;;;;;5055985;28;20210;-34
2023/07/25 11:28:40;;;;;;;4.20;1.13;;;;;;;;;;5064728;28;20279;-36
2023/07/25 11:31:07;;;;;;;1.10;1.00;;;;;;;;;;5068439;28;20205;-34
2023/07/25 11:33:38;;;;;;;0.93;0.80;;;;;;;;;;5068809;28;20233;-41
2023/07/25 11:36:05;;;;;;;2.00;0.90;;;;;;;;;;5062255;28;20213;-36
2023/07/25 11:38:35;;;;;;;0.60;0.60;;;;;;;;;;5060202;28;20233;-39
2023/07/25 11:41:03;;;;;;;1.23;0.98;;;;;;;;;;5062990;28;20216;-40
2023/07/25 11:43:32;;;;;;;0.90;0.90;;;;;;;;;;5068520;28;20207;-37
2023/07/25 11:45:59;;;;;;;0.90;0.90;;;;;;;;;;5060275;28;20217;-36
2023/07/25 11:48:26;;;;;;;1.30;1.20;;;;;;;;;;5055039;28;20229;-38
2023/07/25 11:50:54;;;;;;;1.20;0.80;;;;;;;;;;5046241;28;20206;-37
2023/07/25 11:53:22;;;;;;;0.60;0.60;;;;;;;;;;5054166;28;20201;-32
2023/07/25 11:55:51;;;;;;;0.80;0.80;;;;;;;;;;5051588;28;20206;-35
2023/07/25 11:58:19;;;;;;;0.80;0.70;;;;;;;;;;5046189;28;20208;-35
2023/07/25 12:00:51;;;;;;;1.07;0.77;;;;;;;;;;5054464;28;20215;-38
2023/07/25 12:03:18;;;;;;;0.60;0.60;;;;;;;;;;5054722;28;20212;-37
2023/07/25 12:05:52;;;;;;;0.70;0.63;;;;;;;;;;5051199;28;20256;-38
2023/07/25 12:08:30;;;;;;;1.13;0.90;;;;;;;;;;5050379;28;20206;-34
2023/07/25 12:11:00;;;;;;;0.63;0.63;;;;;;;;;;5049698;28;20214;-34
2023/07/25 12:13:28;;;;;;;3.93;0.73;;;;;;;;;;5059794;28;20208;-35
2023/07/25 12:15:57;;;;;;;0.77;0.70;;;;;;;;;;5055005;28;20229;-36
2023/07/25 12:18:28;;;;;;;0.63;0.60;;;;;;;;;;5054202;28;20255;-32
2023/07/25 12:20:55;;;;;;;1.13;0.47;;;;;;;;;;5050734;28;20284;-34
2023/07/25 12:23:29;;;;;;;0.83;0.67;;;;;;;;;;5049189;28;20202;-36
2023/07/25 12:25:57;;;;;;;0.60;0.60;;;;;;;;;;5049947;28;20213;-35
2023/07/25 12:28:24;;;;;;;0.87;0.60;;;;;;;;;;5047365;28;20230;-35
2023/07/25 12:30:51;;;;;;;1.10;1.00;;;;;;;;;;5053994;28;20202;-38
2023/07/25 12:33:20;;;;;;;1.20;0.93;;;;;;;;;;5054507;28;20210;-42
2023/07/25 12:35:47;;;;;;;0.77;0.77;;;;;;;;;;5049738;28;20220;-34
2023/07/25 12:38:14;;;;;;;0.50;0.50;;;;;;;;;;5048860;28;20305;-38
2023/07/25 12:40:41;;;;;;;1.05;0.88;;;;;;;;;;5050095;28;20210;-33
2023/07/25 12:43:08;;;;;;;0.77;0.55;;;;;;;;;;5047052;28;20285;-36
2023/07/25 12:45:35;;;;;;;0.60;0.60;;;;;;;;;;5052313;28;20197;-40
2023/07/25 12:48:02;;;;;;;0.60;0.60;;;;;;;;;;5052038;28;20205;-38
2023/07/25 12:50:31;;;;;;;0.50;0.50;;;;;;;;;;5053419;28;20206;-35
2023/07/25 12:52:58;;;;;;;0.40;0.40;;;;;;;;;;5050687;28;20288;-41
2023/07/25 12:55:25;;;;;;;1.50;0.40;;;;;;;;;;5053313;28;20249;-37
2023/07/25 12:57:52;;;;;;;1.17;0.70;;;;;;;;;;5045108;28;20210;-38
2023/07/25 13:00:20;;;;;;;0.60;0.60;;;;;;;;;;5052826;28;20228;-34
2023/07/25 13:02:47;;;;;;;0.50;0.50;;;;;;;;;;5052708;28;20281;-39
2023/07/25 13:05:14;;;;;;;0.60;0.60;;;;;;;;;;5049949;28;20292;-38
2023/07/25 13:07:43;;;;;;;0.60;0.60;;;;;;;;;;5048576;28;20220;-37
2023/07/25 13:10:10;;;;;;;0.70;0.70;;;;;;;;;;5053300;28;20316;-37
2023/07/25 13:12:37;;;;;;;0.63;0.63;;;;;;;;;;5044199;28;20212;-44
2023/07/25 13:15:05;;;;;;;1.47;0.90;;;;;;;;;;5053239;28;20229;-38
2023/07/25 13:17:33;;;;;;;2.87;1.10;;;;;;;;;;5054475;28;20212;-41
2023/07/25 13:20:00;;;;;;;0.77;0.67;;;;;;;;;;5053553;28;20234;-33
2023/07/25 13:22:27;;;;;;;1.47;0.73;;;;;;;;;;5049853;28;20280;-35
2023/07/25 13:24:56;;;;;;;0.63;0.63;;;;;;;;;;5053655;28;20206;-39
2023/07/25 13:27:25;;;;;;;1.30;0.70;;;;;;;;;;5046317;28;20254;-38
2023/07/25 13:29:52;;;;;;;0.50;0.50;;;;;;;;;;5051077;28;20306;-32
2023/07/25 13:32:19;;;;;;;1.63;0.80;;;;;;;;;;5051367;28;20319;-37
2023/07/25 13:34:47;;;;;;;0.73;0.50;;;;;;;;;;5043171;28;20236;-38
2023/07/25 13:37:14;;;;;;;0.67;0.60;;;;;;;;;;5045665;28;20219;-36
2023/07/25 13:39:41;;;;;;;0.93;0.70;;;;;;;;;;5048103;28;20220;-35
2023/07/25 13:42:09;;;;;;;0.67;0.40;;;;;;;;;;5034836;28;20291;-35
2023/07/25 13:44:37;;;;;;;0.77;0.77;;;;;;;;;;5039984;28;20208;-34
2023/07/25 13:47:04;;;;;;;0.50;0.50;;;;;;;;;;5048820;28;20208;-39
2023/07/25 13:49:31;;;;;;;0.70;0.70;;;;;;;;;;5049887;28;20225;-38
2023/07/25 13:51:58;;;;;;;1.37;0.70;;;;;;;;;;5042703;28;20200;-32
2023/07/25 13:54:25;;;;;;;1.30;0.73;;;;;;;;;;5049365;28;20324;-36
2023/07/25 13:56:53;;;;;;;1.97;0.70;;;;;;;;;;5040601;28;20199;-37
2023/07/25 13:59:21;;;;;;;1.13;0.63;;;;;;;;;;5048771;28;20235;-38
2023/07/25 14:01:48;;;;;;;0.60;0.60;;;;;;;;;;5049709;28;20201;-35
2023/07/25 14:04:15;;;;;;;0.70;0.70;;;;;;;;;;5048767;28;20213;-33
2023/07/25 14:06:43;;;;;;;0.70;0.70;;;;;;;;;;5043920;28;20208;-38
2023/07/25 14:09:11;;;;;;;0.90;0.90;;;;;;;;;;5041247;28;20229;-31
2023/07/25 14:11:38;;;;;;;1.50;0.90;;;;;;;;;;5042152;28;20215;-36
2023/07/25 14:14:05;;;;;;;0.60;0.60;;;;;;;;;;5042198;28;20314;-33
2023/07/25 14:16:34;;;;;;;0.67;0.67;;;;;;;;;;5049938;28;20286;-37
2023/07/25 14:19:01;;;;;;;0.70;0.70;;;;;;;;;;5049954;28;20232;-31
2023/07/25 14:21:28;;;;;;;0.70;0.70;;;;;;;;;;5045453;28;20208;-34
2023/07/25 14:23:55;;;;;;;1.20;0.80;;;;;;;;;;5049266;28;20422;-32
2023/07/25 14:26:22;;;;;;;0.80;0.80;;;;;;;;;;5042798;28;20205;-38
2023/07/25 14:28:49;;;;;;;1.17;0.60;;;;;;;;;;5047479;28;20231;-36
2023/07/25 14:31:16;;;;;;;2.10;0.70;;;;;;;;;;5050293;28;20213;-34
2023/07/25 14:33:45;;;;;;;0.83;0.73;;;;;;;;;;5049399;28;20211;-35
2023/07/25 14:36:12;;;;;;;1.10;0.70;;;;;;;;;;5047156;28;20223;-36
2023/07/25 14:38:40;;;;;;;2.20;1.10;;;;;;;;;;5048548;28;20443;-33
2023/07/25 14:41:26;;;;;;;1.60;1.00;;;;;;;;;;5046762;28;20212;-35
2023/07/25 14:43:53;;;;;;;1.00;0.80;;;;;;;;;;5048321;28;20199;-35
2023/07/25 14:46:20;;;;;;;1.13;0.87;;;;;;;;;;5050543;28;20295;-38
2023/07/25 14:48:48;;;;;;;0.70;0.70;;;;;;;;;;5051339;28;20224;-33
2023/07/25 14:51:16;;;;;;;0.93;0.70;;;;;;;;;;5046563;28;20223;-37